KGXY/GXY METAR and TAF weather

Enter ICAO airport designator
Station Type Date Time Source
KGXY METAR 2019/12/06 13:56 UTC NOAA

KGXY 061356Z AUTO 34006KT 1/4SM FZFG OVC002 M05/M06 A3028 RMK AO2 SLP296 T10501056 FZRANO


Station Type Date Time Source
KGXY Decoded METAR 2019/12/06 13:56 UTC NOAA

Greeley, Greeley-Weld County Airport, CO, United States (KGXY) 40-26N 104-38W
Dec 06, 2019 - 08:56 AM EST / 2019.12.06 1356 UTC
Wind: from the NNW (340 degrees) at 7 MPH (6 KT):0
Visibility: 1/4 mile(s):0
Sky conditions: overcast
Weather: freezing fog
Temperature: 23.0 F (-5.0 C)
Windchill: 14 F (-10 C):1
Dew Point: 21.9 F (-5.6 C)
Relative Humidity: 95%
Pressure (altimeter): 30.28 in. Hg (1025 hPa)
ob: KGXY 061356Z AUTO 34006KT 1/4SM FZFG OVC002 M05/M06 A3028 RMK AO2 SLP296 T10501056 FZRANO
cycle: 14

Station Type Date Time Source
KGXY TAF UTC NOAA

Error!

Example: see airport list